sensor_id;sensor_type;location;lat;lon;timestamp;temperature;humidity
10566;DHT22;5331;48.148;16.326;2022-09-09T00:00:58;14.80;1.00
10566;DHT22;5331;48.148;16.326;2022-09-09T00:03:31;14.80;1.00
10566;DHT22;5331;48.148;16.326;2022-09-09T00:06:06;14.80;1.00
10566;DHT22;5331;48.148;16.326;2022-09-09T00:08:47;14.70;1.00
10566;DHT22;5331;48.148;16.326;2022-09-09T00:11:21;14.70;1.00
10566;DHT22;5331;48.148;16.326;2022-09-09T00:13:52;14.80;1.00
10566;DHT22;5331;48.148;16.326;2022-09-09T00:16:23;14.80;1.00
10566;DHT22;5331;48.148;16.326;2022-09-09T00:18:57;14.70;1.00
10566;DHT22;5331;48.148;16.326;2022-09-09T00:21:32;14.80;1.00
10566;DHT22;5331;48.148;16.326;2022-09-09T00:24:04;14.80;1.00
10566;DHT22;5331;48.148;16.326;2022-09-09T00:26:39;14.80;1.00
10566;DHT22;5331;48.148;16.326;2022-09-09T00:29:17;14.80;1.00
10566;DHT22;5331;48.148;16.326;2022-09-09T00:31:44;14.90;1.00
10566;DHT22;5331;48.148;16.326;2022-09-09T00:34:15;14.90;1.00
10566;DHT22;5331;48.148;16.326;2022-09-09T00:36:43;14.90;1.00
10566;DHT22;5331;48.148;16.326;2022-09-09T00:39:16;14.90;1.00
10566;DHT22;5331;48.148;16.326;2022-09-09T00:41:55;14.90;1.00
10566;DHT22;5331;48.148;16.326;2022-09-09T00:44:30;14.90;1.00
10566;DHT22;5331;48.148;16.326;2022-09-09T00:47:09;14.90;1.00
10566;DHT22;5331;48.148;16.326;2022-09-09T00:49:44;14.90;1.00
10566;DHT22;5331;48.148;16.326;2022-09-09T00:52:24;14.90;1.00
10566;DHT22;5331;48.148;16.326;2022-09-09T00:55:00;14.90;1.00
10566;DHT22;5331;48.148;16.326;2022-09-09T00:57:32;14.80;1.00
10566;DHT22;5331;48.148;16.326;2022-09-09T01:00:17;14.80;1.00
10566;DHT22;5331;48.148;16.326;2022-09-09T01:03:02;14.70;1.00
10566;DHT22;5331;48.148;16.326;2022-09-09T01:05:39;14.70;1.00
10566;DHT22;5331;48.148;16.326;2022-09-09T01:08:12;14.60;1.00
10566;DHT22;5331;48.148;16.326;2022-09-09T01:10:48;14.60;1.00
10566;DHT22;5331;48.148;16.326;2022-09-09T01:13:22;14.50;1.00
10566;DHT22;5331;48.148;16.326;2022-09-09T01:15:50;14.50;1.00
10566;DHT22;5331;48.148;16.326;2022-09-09T01:18:21;14.50;1.00
10566;DHT22;5331;48.148;16.326;2022-09-09T01:20:55;14.50;1.00
10566;DHT22;5331;48.148;16.326;2022-09-09T01:23:37;14.40;1.00
10566;DHT22;5331;48.148;16.326;2022-09-09T01:26:17;14.30;1.00
10566;DHT22;5331;48.148;16.326;2022-09-09T01:28:47;14.30;1.00
10566;DHT22;5331;48.148;16.326;2022-09-09T01:31:17;14.30;1.00
10566;DHT22;5331;48.148;16.326;2022-09-09T01:33:45;14.20;1.00
10566;DHT22;5331;48.148;16.326;2022-09-09T01:36:15;14.10;1.00
10566;DHT22;5331;48.148;16.326;2022-09-09T01:38:43;14.10;1.00
10566;DHT22;5331;48.148;16.326;2022-09-09T01:41:12;14.10;1.00
10566;DHT22;5331;48.148;16.326;2022-09-09T01:43:39;14.00;1.00
10566;DHT22;5331;48.148;16.326;2022-09-09T01:46:06;14.00;1.00
10566;DHT22;5331;48.148;16.326;2022-09-09T01:48:33;14.00;1.00
10566;DHT22;5331;48.148;16.326;2022-09-09T01:51:00;14.00;1.00
10566;DHT22;5331;48.148;16.326;2022-09-09T01:53:27;14.00;1.00
10566;DHT22;5331;48.148;16.326;2022-09-09T01:56:02;14.00;1.00
10566;DHT22;5331;48.148;16.326;2022-09-09T01:58:41;14.00;1.00
10566;DHT22;5331;48.148;16.326;2022-09-09T02:01:17;14.00;1.00
10566;DHT22;5331;48.148;16.326;2022-09-09T02:03:52;14.00;1.00
10566;DHT22;5331;48.148;16.326;2022-09-09T02:06:27;14.00;1.00
10566;DHT22;5331;48.148;16.326;2022-09-09T02:08:56;14.00;1.00
10566;DHT22;5331;48.148;16.326;2022-09-09T02:11:26;14.00;1.00
10566;DHT22;5331;48.148;16.326;2022-09-09T02:13:58;14.00;1.00
10566;DHT22;5331;48.148;16.326;2022-09-09T02:16:30;14.00;1.00
10566;DHT22;5331;48.148;16.326;2022-09-09T02:19:01;14.00;1.00
10566;DHT22;5331;48.148;16.326;2022-09-09T02:21:31;14.00;1.00
10566;DHT22;5331;48.148;16.326;2022-09-09T02:24:04;14.00;1.00
10566;DHT22;5331;48.148;16.326;2022-09-09T02:26:34;13.90;1.00
10566;DHT22;5331;48.148;16.326;2022-09-09T02:29:08;14.00;1.00
10566;DHT22;5331;48.148;16.326;2022-09-09T02:31:36;14.00;1.00
10566;DHT22;5331;48.148;16.326;2022-09-09T02:34:05;14.00;1.00
10566;DHT22;5331;48.148;16.326;2022-09-09T02:36:36;14.00;1.00
10566;DHT22;5331;48.148;16.326;2022-09-09T02:39:06;13.90;1.00
10566;DHT22;5331;48.148;16.326;2022-09-09T02:41:35;13.90;1.00
10566;DHT22;5331;48.148;16.326;2022-09-09T02:44:10;13.80;1.00
10566;DHT22;5331;48.148;16.326;2022-09-09T02:47:00;13.80;1.00
10566;DHT22;5331;48.148;16.326;2022-09-09T02:49:40;13.80;1.00
10566;DHT22;5331;48.148;16.326;2022-09-09T02:52:11;13.80;1.00
10566;DHT22;5331;48.148;16.326;2022-09-09T02:54:41;13.80;1.00
10566;DHT22;5331;48.148;16.326;2022-09-09T02:57:11;13.80;1.00
10566;DHT22;5331;48.148;16.326;2022-09-09T02:59:40;13.80;1.00
10566;DHT22;5331;48.148;16.326;2022-09-09T03:02:07;13.70;1.00
10566;DHT22;5331;48.148;16.326;2022-09-09T03:04:35;13.70;1.00
10566;DHT22;5331;48.148;16.326;2022-09-09T03:07:03;13.70;1.00
10566;DHT22;5331;48.148;16.326;2022-09-09T03:09:30;13.70;1.00
10566;DHT22;5331;48.148;16.326;2022-09-09T03:11:58;13.60;1.00
10566;DHT22;5331;48.148;16.326;2022-09-09T03:14:25;13.60;1.00
10566;DHT22;5331;48.148;16.326;2022-09-09T03:16:54;13.60;1.00
10566;DHT22;5331;48.148;16.326;2022-09-09T03:19:21;13.50;1.00
10566;DHT22;5331;48.148;16.326;2022-09-09T03:21:48;13.50;1.00
10566;DHT22;5331;48.148;16.326;2022-09-09T03:24:15;13.50;1.00
10566;DHT22;5331;48.148;16.326;2022-09-09T03:26:42;13.50;1.00
10566;DHT22;5331;48.148;16.326;2022-09-09T03:29:11;13.50;1.00
10566;DHT22;5331;48.148;16.326;2022-09-09T03:31:39;13.50;1.00
10566;DHT22;5331;48.148;16.326;2022-09-09T03:34:07;13.50;1.00
10566;DHT22;5331;48.148;16.326;2022-09-09T03:36:34;13.50;1.00
10566;DHT22;5331;48.148;16.326;2022-09-09T03:39:02;13.50;1.00
10566;DHT22;5331;48.148;16.326;2022-09-09T03:41:30;13.40;1.00
10566;DHT22;5331;48.148;16.326;2022-09-09T03:43:57;13.40;1.00
10566;DHT22;5331;48.148;16.326;2022-09-09T03:46:25;13.40;1.00
10566;DHT22;5331;48.148;16.326;2022-09-09T03:48:52;13.40;1.00
10566;DHT22;5331;48.148;16.326;2022-09-09T03:51:20;13.40;1.00
10566;DHT22;5331;48.148;16.326;2022-09-09T03:53:48;13.40;1.00
10566;DHT22;5331;48.148;16.326;2022-09-09T03:56:14;13.40;1.00
10566;DHT22;5331;48.148;16.326;2022-09-09T03:58:41;13.40;1.00
10566;DHT22;5331;48.148;16.326;2022-09-09T04:01:11;13.40;1.00
10566;DHT22;5331;48.148;16.326;2022-09-09T04:03:39;13.40;1.00
10566;DHT22;5331;48.148;16.326;2022-09-09T04:06:08;13.40;1.00
10566;DHT22;5331;48.148;16.326;2022-09-09T04:08:37;13.40;1.00
10566;DHT22;5331;48.148;16.326;2022-09-09T04:11:05;13.30;1.00
10566;DHT22;5331;48.148;16.326;2022-09-09T04:13:32;13.30;1.00
10566;DHT22;5331;48.148;16.326;2022-09-09T04:16:02;13.30;1.00
10566;DHT22;5331;48.148;16.326;2022-09-09T04:18:29;13.30;1.00
10566;DHT22;5331;48.148;16.326;2022-09-09T04:20:57;13.30;1.00
10566;DHT22;5331;48.148;16.326;2022-09-09T04:23:25;13.30;1.00
10566;DHT22;5331;48.148;16.326;2022-09-09T04:25:55;13.20;1.00
10566;DHT22;5331;48.148;16.326;2022-09-09T04:28:24;13.20;1.00
10566;DHT22;5331;48.148;16.326;2022-09-09T04:30:51;13.20;1.00
10566;DHT22;5331;48.148;16.326;2022-09-09T04:33:19;13.20;1.00
10566;DHT22;5331;48.148;16.326;2022-09-09T04:35:48;13.20;1.00
10566;DHT22;5331;48.148;16.326;2022-09-09T04:38:16;13.20;1.00
10566;DHT22;5331;48.148;16.326;2022-09-09T04:40:43;13.10;1.00
10566;DHT22;5331;48.148;16.326;2022-09-09T04:43:12;13.10;1.00
10566;DHT22;5331;48.148;16.326;2022-09-09T04:45:40;13.10;1.00
10566;DHT22;5331;48.148;16.326;2022-09-09T04:48:08;13.10;1.00
10566;DHT22;5331;48.148;16.326;2022-09-09T04:50:36;13.10;1.00
10566;DHT22;5331;48.148;16.326;2022-09-09T04:53:03;13.10;1.00
10566;DHT22;5331;48.148;16.326;2022-09-09T04:55:31;13.10;1.00
10566;DHT22;5331;48.148;16.326;2022-09-09T04:58:03;13.00;1.00
10566;DHT22;5331;48.148;16.326;2022-09-09T05:00:32;13.00;1.00
10566;DHT22;5331;48.148;16.326;2022-09-09T05:03:02;13.00;1.00
10566;DHT22;5331;48.148;16.326;2022-09-09T05:05:30;13.00;1.00
10566;DHT22;5331;48.148;16.326;2022-09-09T05:08:01;13.00;1.00
10566;DHT22;5331;48.148;16.326;2022-09-09T05:10:28;13.10;1.00
10566;DHT22;5331;48.148;16.326;2022-09-09T05:12:55;13.10;1.00
10566;DHT22;5331;48.148;16.326;2022-09-09T05:15:22;13.10;1.00
10566;DHT22;5331;48.148;16.326;2022-09-09T05:17:50;13.20;1.00
10566;DHT22;5331;48.148;16.326;2022-09-09T05:20:18;13.20;1.00
10566;DHT22;5331;48.148;16.326;2022-09-09T05:22:45;13.20;1.00
10566;DHT22;5331;48.148;16.326;2022-09-09T05:25:12;13.30;1.00
10566;DHT22;5331;48.148;16.326;2022-09-09T05:27:39;13.30;1.00
10566;DHT22;5331;48.148;16.326;2022-09-09T05:30:07;13.40;1.00
10566;DHT22;5331;48.148;16.326;2022-09-09T05:32:34;13.50;1.00
10566;DHT22;5331;48.148;16.326;2022-09-09T05:35:04;13.60;1.00
10566;DHT22;5331;48.148;16.326;2022-09-09T05:37:31;13.70;1.00
10566;DHT22;5331;48.148;16.326;2022-09-09T05:39:58;13.80;1.00
10566;DHT22;5331;48.148;16.326;2022-09-09T05:42:30;13.90;1.00
10566;DHT22;5331;48.148;16.326;2022-09-09T05:44:57;14.00;1.00
10566;DHT22;5331;48.148;16.326;2022-09-09T05:47:24;14.20;1.00
10566;DHT22;5331;48.148;16.326;2022-09-09T05:49:53;14.40;1.00
10566;DHT22;5331;48.148;16.326;2022-09-09T05:52:22;14.50;1.00
10566;DHT22;5331;48.148;16.326;2022-09-09T05:54:49;14.50;1.00
10566;DHT22;5331;48.148;16.326;2022-09-09T05:57:16;14.60;1.00
10566;DHT22;5331;48.148;16.326;2022-09-09T05:59:45;14.90;1.00
10566;DHT22;5331;48.148;16.326;2022-09-09T06:02:12;15.40;1.00
10566;DHT22;5331;48.148;16.326;2022-09-09T06:04:39;16.10;1.00
10566;DHT22;5331;48.148;16.326;2022-09-09T06:07:05;16.70;1.00
10566;DHT22;5331;48.148;16.326;2022-09-09T06:09:34;16.70;1.00
10566;DHT22;5331;48.148;16.326;2022-09-09T06:12:01;16.90;1.00
10566;DHT22;5331;48.148;16.326;2022-09-09T06:14:28;17.10;1.00
10566;DHT22;5331;48.148;16.326;2022-09-09T06:16:55;17.60;1.00
10566;DHT22;5331;48.148;16.326;2022-09-09T06:19:22;18.40;1.00
10566;DHT22;5331;48.148;16.326;2022-09-09T06:21:52;19.20;1.00
10566;DHT22;5331;48.148;16.326;2022-09-09T06:24:19;19.20;1.00
10566;DHT22;5331;48.148;16.326;2022-09-09T06:26:47;19.90;1.00
10566;DHT22;5331;48.148;16.326;2022-09-09T06:29:14;20.30;1.00
10566;DHT22;5331;48.148;16.326;2022-09-09T06:31:41;20.10;1.00
10566;DHT22;5331;48.148;16.326;2022-09-09T06:34:09;20.60;1.00
10566;DHT22;5331;48.148;16.326;2022-09-09T06:36:37;21.20;1.00
10566;DHT22;5331;48.148;16.326;2022-09-09T06:39:05;21.30;1.00
10566;DHT22;5331;48.148;16.326;2022-09-09T06:41:33;20.80;1.00
10566;DHT22;5331;48.148;16.326;2022-09-09T06:44:01;20.20;1.00
10566;DHT22;5331;48.148;16.326;2022-09-09T06:46:30;19.80;1.00
10566;DHT22;5331;48.148;16.326;2022-09-09T06:48:59;19.50;1.00
10566;DHT22;5331;48.148;16.326;2022-09-09T06:51:27;19.20;1.00
10566;DHT22;5331;48.148;16.326;2022-09-09T06:53:56;19.00;1.00
10566;DHT22;5331;48.148;16.326;2022-09-09T06:56:26;18.90;1.00
10566;DHT22;5331;48.148;16.326;2022-09-09T06:58:54;18.80;1.00
10566;DHT22;5331;48.148;16.326;2022-09-09T07:01:24;18.90;1.00
10566;DHT22;5331;48.148;16.326;2022-09-09T07:03:54;19.10;1.00
10566;DHT22;5331;48.148;16.326;2022-09-09T07:06:23;19.20;1.00
10566;DHT22;5331;48.148;16.326;2022-09-09T07:08:51;19.20;1.00
10566;DHT22;5331;48.148;16.326;2022-09-09T07:11:19;19.50;1.00
10566;DHT22;5331;48.148;16.326;2022-09-09T07:13:46;19.90;1.00
10566;DHT22;5331;48.148;16.326;2022-09-09T07:16:15;19.90;1.00
10566;DHT22;5331;48.148;16.326;2022-09-09T07:18:44;19.90;1.00
10566;DHT22;5331;48.148;16.326;2022-09-09T07:21:12;19.80;1.00
10566;DHT22;5331;48.148;16.326;2022-09-09T07:23:39;19.70;1.00
10566;DHT22;5331;48.148;16.326;2022-09-09T07:26:09;20.00;1.00
10566;DHT22;5331;48.148;16.326;2022-09-09T07:28:36;20.00;1.00
10566;DHT22;5331;48.148;16.326;2022-09-09T07:31:04;20.40;1.00
10566;DHT22;5331;48.148;16.326;2022-09-09T07:33:33;20.80;1.00
10566;DHT22;5331;48.148;16.326;2022-09-09T07:36:07;21.30;1.00
10566;DHT22;5331;48.148;16.326;2022-09-09T07:38:38;21.50;1.00
10566;DHT22;5331;48.148;16.326;2022-09-09T07:41:07;21.50;1.00
10566;DHT22;5331;48.148;16.326;2022-09-09T07:43:37;21.20;1.00
10566;DHT22;5331;48.148;16.326;2022-09-09T07:46:05;21.00;1.00
10566;DHT22;5331;48.148;16.326;2022-09-09T07:48:33;21.00;1.00
10566;DHT22;5331;48.148;16.326;2022-09-09T07:51:07;20.90;1.00
10566;DHT22;5331;48.148;16.326;2022-09-09T07:53:34;20.90;1.00
10566;DHT22;5331;48.148;16.326;2022-09-09T07:56:05;20.90;1.00
10566;DHT22;5331;48.148;16.326;2022-09-09T07:58:32;20.90;1.00
10566;DHT22;5331;48.148;16.326;2022-09-09T08:00:59;20.90;1.00
10566;DHT22;5331;48.148;16.326;2022-09-09T08:03:26;20.90;1.00
10566;DHT22;5331;48.148;16.326;2022-09-09T08:05:53;20.90;1.00
10566;DHT22;5331;48.148;16.326;2022-09-09T08:08:28;20.90;1.00
10566;DHT22;5331;48.148;16.326;2022-09-09T08:11:02;20.80;1.00
10566;DHT22;5331;48.148;16.326;2022-09-09T08:13:29;20.80;1.00
10566;DHT22;5331;48.148;16.326;2022-09-09T08:16:04;20.80;1.00
10566;DHT22;5331;48.148;16.326;2022-09-09T08:18:32;21.00;1.00
10566;DHT22;5331;48.148;16.326;2022-09-09T08:21:05;21.20;1.00
10566;DHT22;5331;48.148;16.326;2022-09-09T08:23:33;21.40;1.00
10566;DHT22;5331;48.148;16.326;2022-09-09T08:26:08;21.60;1.00
10566;DHT22;5331;48.148;16.326;2022-09-09T08:28:36;21.90;1.00
10566;DHT22;5331;48.148;16.326;2022-09-09T08:31:11;22.20;1.00
10566;DHT22;5331;48.148;16.326;2022-09-09T08:33:39;22.50;1.00
10566;DHT22;5331;48.148;16.326;2022-09-09T08:36:08;22.50;1.00
10566;DHT22;5331;48.148;16.326;2022-09-09T08:38:37;22.40;1.00
10566;DHT22;5331;48.148;16.326;2022-09-09T08:41:17;22.60;1.00
10566;DHT22;5331;48.148;16.326;2022-09-09T08:43:52;23.10;1.00
10566;DHT22;5331;48.148;16.326;2022-09-09T08:46:26;23.80;1.00
10566;DHT22;5331;48.148;16.326;2022-09-09T08:48:58;23.60;1.00
10566;DHT22;5331;48.148;16.326;2022-09-09T08:51:30;23.40;1.00
10566;DHT22;5331;48.148;16.326;2022-09-09T08:54:01;23.80;1.00
10566;DHT22;5331;48.148;16.326;2022-09-09T08:56:31;23.80;1.00
10566;DHT22;5331;48.148;16.326;2022-09-09T08:59:00;23.60;1.00
10566;DHT22;5331;48.148;16.326;2022-09-09T09:01:49;24.00;1.00
10566;DHT22;5331;48.148;16.326;2022-09-09T09:04:30;24.50;1.00
10566;DHT22;5331;48.148;16.326;2022-09-09T09:07:09;24.80;1.00
10566;DHT22;5331;48.148;16.326;2022-09-09T09:09:45;25.10;1.00
10566;DHT22;5331;48.148;16.326;2022-09-09T09:12:16;25.00;1.00
10566;DHT22;5331;48.148;16.326;2022-09-09T09:14:47;25.20;1.00
10566;DHT22;5331;48.148;16.326;2022-09-09T09:17:17;25.30;1.00
10566;DHT22;5331;48.148;16.326;2022-09-09T09:19:47;25.30;1.00
10566;DHT22;5331;48.148;16.326;2022-09-09T09:22:18;25.20;1.00
10566;DHT22;5331;48.148;16.326;2022-09-09T09:24:52;25.30;1.00
10566;DHT22;5331;48.148;16.326;2022-09-09T09:27:29;25.20;1.00
10566;DHT22;5331;48.148;16.326;2022-09-09T09:29:59;25.20;1.00
10566;DHT22;5331;48.148;16.326;2022-09-09T09:32:30;24.80;1.00
10566;DHT22;5331;48.148;16.326;2022-09-09T09:34:58;24.20;1.00
10566;DHT22;5331;48.148;16.326;2022-09-09T09:37:29;24.10;1.00
10566;DHT22;5331;48.148;16.326;2022-09-09T09:40:08;24.10;1.00
10566;DHT22;5331;48.148;16.326;2022-09-09T09:42:36;24.30;1.00
10566;DHT22;5331;48.148;16.326;2022-09-09T09:45:08;24.30;1.00
10566;DHT22;5331;48.148;16.326;2022-09-09T09:47:35;24.20;1.00
10566;DHT22;5331;48.148;16.326;2022-09-09T09:50:03;24.20;1.00
10566;DHT22;5331;48.148;16.326;2022-09-09T09:52:31;24.10;1.00
10566;DHT22;5331;48.148;16.326;2022-09-09T09:55:03;24.00;1.00
10566;DHT22;5331;48.148;16.326;2022-09-09T09:57:33;23.70;1.00
10566;DHT22;5331;48.148;16.326;2022-09-09T10:00:11;23.70;1.00
10566;DHT22;5331;48.148;16.326;2022-09-09T10:02:42;23.90;1.00
10566;DHT22;5331;48.148;16.326;2022-09-09T10:05:17;24.20;1.00
10566;DHT22;5331;48.148;16.326;2022-09-09T10:07:45;24.60;1.00
10566;DHT22;5331;48.148;16.326;2022-09-09T10:10:16;24.90;1.00
10566;DHT22;5331;48.148;16.326;2022-09-09T10:12:55;25.30;1.00
10566;DHT22;5331;48.148;16.326;2022-09-09T10:15:33;25.10;1.00
10566;DHT22;5331;48.148;16.326;2022-09-09T10:18:17;25.40;1.00
10566;DHT22;5331;48.148;16.326;2022-09-09T10:20:54;25.70;1.00
10566;DHT22;5331;48.148;16.326;2022-09-09T10:23:38;25.70;1.00
10566;DHT22;5331;48.148;16.326;2022-09-09T10:26:29;25.60;1.00
10566;DHT22;5331;48.148;16.326;2022-09-09T10:29:16;25.50;1.00
10566;DHT22;5331;48.148;16.326;2022-09-09T10:31:54;25.00;1.00
10566;DHT22;5331;48.148;16.326;2022-09-09T10:34:43;24.80;1.00
10566;DHT22;5331;48.148;16.326;2022-09-09T10:37:23;24.80;1.00
10566;DHT22;5331;48.148;16.326;2022-09-09T10:39:59;24.80;1.00
10566;DHT22;5331;48.148;16.326;2022-09-09T10:42:31;24.90;1.00
10566;DHT22;5331;48.148;16.326;2022-09-09T10:45:14;25.10;1.00
10566;DHT22;5331;48.148;16.326;2022-09-09T10:48:05;25.40;1.00
10566;DHT22;5331;48.148;16.326;2022-09-09T10:50:43;25.90;1.00
10566;DHT22;5331;48.148;16.326;2022-09-09T10:53:18;25.90;1.00
10566;DHT22;5331;48.148;16.326;2022-09-09T10:55:52;25.40;1.00
10566;DHT22;5331;48.148;16.326;2022-09-09T10:58:25;24.90;1.00
10566;DHT22;5331;48.148;16.326;2022-09-09T11:00:56;24.90;1.00
10566;DHT22;5331;48.148;16.326;2022-09-09T11:03:28;24.80;1.00
10566;DHT22;5331;48.148;16.326;2022-09-09T11:05:59;24.70;1.00
10566;DHT22;5331;48.148;16.326;2022-09-09T11:08:29;24.80;1.00
10566;DHT22;5331;48.148;16.326;2022-09-09T11:11:00;24.70;1.00
10566;DHT22;5331;48.148;16.326;2022-09-09T11:13:35;24.70;1.00
10566;DHT22;5331;48.148;16.326;2022-09-09T11:16:16;24.60;1.00
10566;DHT22;5331;48.148;16.326;2022-09-09T11:18:44;24.70;1.00
10566;DHT22;5331;48.148;16.326;2022-09-09T11:21:18;24.80;1.00
10566;DHT22;5331;48.148;16.326;2022-09-09T11:23:50;24.80;1.00
10566;DHT22;5331;48.148;16.326;2022-09-09T11:26:28;25.00;1.00
10566;DHT22;5331;48.148;16.326;2022-09-09T11:29:08;25.10;1.00
10566;DHT22;5331;48.148;16.326;2022-09-09T11:31:45;25.00;1.00
10566;DHT22;5331;48.148;16.326;2022-09-09T11:34:31;24.90;1.00
10566;DHT22;5331;48.148;16.326;2022-09-09T11:37:28;24.80;1.00
10566;DHT22;5331;48.148;16.326;2022-09-09T11:40:16;25.00;1.00
10566;DHT22;5331;48.148;16.326;2022-09-09T11:42:44;25.10;1.00
10566;DHT22;5331;48.148;16.326;2022-09-09T11:45:22;24.90;1.00
10566;DHT22;5331;48.148;16.326;2022-09-09T11:47:52;24.90;1.00
10566;DHT22;5331;48.148;16.326;2022-09-09T11:50:38;24.90;1.00
10566;DHT22;5331;48.148;16.326;2022-09-09T11:53:20;25.10;1.00
10566;DHT22;5331;48.148;16.326;2022-09-09T11:56:12;25.30;1.00
10566;DHT22;5331;48.148;16.326;2022-09-09T11:58:43;25.40;1.00
10566;DHT22;5331;48.148;16.326;2022-09-09T12:01:28;25.60;1.00
10566;DHT22;5331;48.148;16.326;2022-09-09T12:04:11;25.60;1.00
10566;DHT22;5331;48.148;16.326;2022-09-09T12:06:44;25.60;1.00
10566;DHT22;5331;48.148;16.326;2022-09-09T12:09:22;25.60;1.00
10566;DHT22;5331;48.148;16.326;2022-09-09T12:11:50;25.70;1.00
10566;DHT22;5331;48.148;16.326;2022-09-09T12:14:23;25.70;1.00
10566;DHT22;5331;48.148;16.326;2022-09-09T12:17:18;25.70;1.00
10566;DHT22;5331;48.148;16.326;2022-09-09T12:19:46;25.70;1.00
10566;DHT22;5331;48.148;16.326;2022-09-09T12:22:22;26.00;1.00
10566;DHT22;5331;48.148;16.326;2022-09-09T12:24:57;26.30;1.00
10566;DHT22;5331;48.148;16.326;2022-09-09T12:27:31;26.20;1.00
10566;DHT22;5331;48.148;16.326;2022-09-09T12:30:04;26.00;1.00
10566;DHT22;5331;48.148;16.326;2022-09-09T12:32:36;25.80;1.00
10566;DHT22;5331;48.148;16.326;2022-09-09T12:35:10;25.60;1.00
10566;DHT22;5331;48.148;16.326;2022-09-09T12:37:40;25.50;1.00
10566;DHT22;5331;48.148;16.326;2022-09-09T12:40:19;25.50;1.00
10566;DHT22;5331;48.148;16.326;2022-09-09T12:42:48;25.50;1.00
10566;DHT22;5331;48.148;16.326;2022-09-09T12:45:17;25.30;1.00
10566;DHT22;5331;48.148;16.326;2022-09-09T12:47:49;25.40;1.00
10566;DHT22;5331;48.148;16.326;2022-09-09T12:50:20;25.20;1.00
10566;DHT22;5331;48.148;16.326;2022-09-09T12:52:50;25.30;1.00
10566;DHT22;5331;48.148;16.326;2022-09-09T12:55:20;25.50;1.00
10566;DHT22;5331;48.148;16.326;2022-09-09T12:57:51;25.50;1.00
10566;DHT22;5331;48.148;16.326;2022-09-09T13:00:20;25.10;1.00
10566;DHT22;5331;48.148;16.326;2022-09-09T13:02:51;25.10;1.00
10566;DHT22;5331;48.148;16.326;2022-09-09T13:05:21;25.00;1.00
10566;DHT22;5331;48.148;16.326;2022-09-09T13:07:48;25.00;1.00
10566;DHT22;5331;48.148;16.326;2022-09-09T13:10:23;25.00;1.00
10566;DHT22;5331;48.148;16.326;2022-09-09T13:12:54;24.70;1.00
10566;DHT22;5331;48.148;16.326;2022-09-09T13:15:23;24.40;1.00
10566;DHT22;5331;48.148;16.326;2022-09-09T13:17:56;24.40;1.00
10566;DHT22;5331;48.148;16.326;2022-09-09T13:20:24;24.40;1.00
10566;DHT22;5331;48.148;16.326;2022-09-09T13:22:53;24.50;1.00
10566;DHT22;5331;48.148;16.326;2022-09-09T13:25:23;24.60;1.00
10566;DHT22;5331;48.148;16.326;2022-09-09T13:28:03;24.60;1.00
10566;DHT22;5331;48.148;16.326;2022-09-09T13:30:31;24.50;1.00
10566;DHT22;5331;48.148;16.326;2022-09-09T13:33:20;24.40;1.00
10566;DHT22;5331;48.148;16.326;2022-09-09T13:35:51;24.40;1.00
10566;DHT22;5331;48.148;16.326;2022-09-09T13:38:19;24.20;1.00
10566;DHT22;5331;48.148;16.326;2022-09-09T13:40:55;24.00;1.00
10566;DHT22;5331;48.148;16.326;2022-09-09T13:43:24;24.00;1.00
10566;DHT22;5331;48.148;16.326;2022-09-09T13:45:55;23.90;1.00
10566;DHT22;5331;48.148;16.326;2022-09-09T13:48:25;23.80;1.00
10566;DHT22;5331;48.148;16.326;2022-09-09T13:50:57;23.70;1.00
10566;DHT22;5331;48.148;16.326;2022-09-09T13:53:24;23.60;1.00
10566;DHT22;5331;48.148;16.326;2022-09-09T13:55:52;23.60;1.00
10566;DHT22;5331;48.148;16.326;2022-09-09T13:58:19;23.50;1.00
10566;DHT22;5331;48.148;16.326;2022-09-09T14:00:48;23.40;1.00
10566;DHT22;5331;48.148;16.326;2022-09-09T14:03:15;23.40;1.00
10566;DHT22;5331;48.148;16.326;2022-09-09T14:05:44;23.30;1.00
10566;DHT22;5331;48.148;16.326;2022-09-09T14:08:16;23.30;1.00
10566;DHT22;5331;48.148;16.326;2022-09-09T14:10:46;23.30;1.00
10566;DHT22;5331;48.148;16.326;2022-09-09T14:13:13;23.30;1.00
10566;DHT22;5331;48.148;16.326;2022-09-09T14:15:41;23.30;1.00
10566;DHT22;5331;48.148;16.326;2022-09-09T14:18:11;23.30;1.00
10566;DHT22;5331;48.148;16.326;2022-09-09T14:20:39;23.30;1.00
10566;DHT22;5331;48.148;16.326;2022-09-09T14:23:10;23.20;1.00
10566;DHT22;5331;48.148;16.326;2022-09-09T14:25:40;23.10;1.00
10566;DHT22;5331;48.148;16.326;2022-09-09T14:28:09;22.90;1.00
10566;DHT22;5331;48.148;16.326;2022-09-09T14:30:37;22.90;1.00
10566;DHT22;5331;48.148;16.326;2022-09-09T14:33:04;22.70;1.00
10566;DHT22;5331;48.148;16.326;2022-09-09T14:35:31;22.50;1.00
10566;DHT22;5331;48.148;16.326;2022-09-09T14:37:58;22.40;1.00
10566;DHT22;5331;48.148;16.326;2022-09-09T14:40:27;22.30;1.00
10566;DHT22;5331;48.148;16.326;2022-09-09T14:42:54;22.20;1.00
10566;DHT22;5331;48.148;16.326;2022-09-09T14:45:22;22.10;1.00
10566;DHT22;5331;48.148;16.326;2022-09-09T14:47:50;22.00;1.00
10566;DHT22;5331;48.148;16.326;2022-09-09T14:50:17;21.80;1.00
10566;DHT22;5331;48.148;16.326;2022-09-09T14:52:44;21.70;1.00
10566;DHT22;5331;48.148;16.326;2022-09-09T14:55:11;21.50;1.00
10566;DHT22;5331;48.148;16.326;2022-09-09T14:57:39;21.40;1.00
10566;DHT22;5331;48.148;16.326;2022-09-09T15:00:08;21.30;1.00
10566;DHT22;5331;48.148;16.326;2022-09-09T15:02:35;21.30;1.00
10566;DHT22;5331;48.148;16.326;2022-09-09T15:05:02;21.20;1.00
10566;DHT22;5331;48.148;16.326;2022-09-09T15:07:30;21.20;1.00
10566;DHT22;5331;48.148;16.326;2022-09-09T15:09:57;21.20;1.00
10566;DHT22;5331;48.148;16.326;2022-09-09T15:12:24;21.20;1.00
10566;DHT22;5331;48.148;16.326;2022-09-09T15:14:53;21.20;1.00
10566;DHT22;5331;48.148;16.326;2022-09-09T15:17:20;21.10;1.00
10566;DHT22;5331;48.148;16.326;2022-09-09T15:19:47;21.10;1.00
10566;DHT22;5331;48.148;16.326;2022-09-09T15:22:15;21.00;1.00
10566;DHT22;5331;48.148;16.326;2022-09-09T15:24:42;21.00;1.00
10566;DHT22;5331;48.148;16.326;2022-09-09T15:27:09;21.00;1.00
10566;DHT22;5331;48.148;16.326;2022-09-09T15:29:36;21.00;1.00
10566;DHT22;5331;48.148;16.326;2022-09-09T15:32:05;21.00;1.00
10566;DHT22;5331;48.148;16.326;2022-09-09T15:34:32;20.90;1.00
10566;DHT22;5331;48.148;16.326;2022-09-09T15:36:59;20.80;1.00
10566;DHT22;5331;48.148;16.326;2022-09-09T15:39:26;20.70;1.00
10566;DHT22;5331;48.148;16.326;2022-09-09T15:41:53;20.70;1.00
10566;DHT22;5331;48.148;16.326;2022-09-09T15:44:21;20.60;1.00
10566;DHT22;5331;48.148;16.326;2022-09-09T15:46:52;20.60;1.00
10566;DHT22;5331;48.148;16.326;2022-09-09T15:49:22;20.60;1.00
10566;DHT22;5331;48.148;16.326;2022-09-09T15:51:52;20.60;1.00
10566;DHT22;5331;48.148;16.326;2022-09-09T15:54:20;20.40;1.00
10566;DHT22;5331;48.148;16.326;2022-09-09T15:56:51;20.40;1.00
10566;DHT22;5331;48.148;16.326;2022-09-09T15:59:20;20.40;1.00
10566;DHT22;5331;48.148;16.326;2022-09-09T16:01:48;20.30;1.00
10566;DHT22;5331;48.148;16.326;2022-09-09T16:04:16;20.20;1.00
10566;DHT22;5331;48.148;16.326;2022-09-09T16:06:50;20.10;1.00
10566;DHT22;5331;48.148;16.326;2022-09-09T16:09:17;20.00;1.00